createdAt,value
2018-02-14T00:00:55.516Z,992.53
2018-02-14T00:01:55.539Z,992.52
2018-02-14T00:02:55.567Z,992.53
2018-02-14T00:03:55.584Z,992.55
2018-02-14T00:04:55.606Z,992.56
2018-02-14T00:05:55.630Z,992.58
2018-02-14T00:06:55.652Z,992.52
2018-02-14T00:07:55.672Z,992.54
2018-02-14T00:08:55.696Z,992.51
2018-02-14T00:09:55.717Z,992.56
2018-02-14T00:10:55.742Z,992.56
2018-02-14T00:11:55.762Z,992.59
2018-02-14T00:12:55.786Z,992.60
2018-02-14T00:13:55.808Z,992.57
2018-02-14T00:14:55.831Z,992.61
2018-02-14T00:15:55.852Z,992.60
2018-02-14T00:16:55.876Z,992.60
2018-02-14T00:17:55.897Z,992.64
2018-02-14T00:18:55.920Z,992.66
2018-02-14T00:19:55.942Z,992.62
2018-02-14T00:20:55.964Z,992.63
2018-02-14T00:21:55.987Z,992.66
2018-02-14T00:22:56.010Z,992.68
2018-02-14T00:23:56.031Z,992.68
2018-02-14T00:24:56.054Z,992.70
2018-02-14T00:25:56.075Z,992.70
2018-02-14T00:26:56.098Z,992.67
2018-02-14T00:27:56.120Z,992.73
2018-02-14T00:28:56.143Z,992.70
2018-02-14T00:29:56.164Z,992.71
2018-02-14T00:30:56.188Z,992.74
2018-02-14T00:31:56.209Z,992.80
2018-02-14T00:32:56.232Z,992.79
2018-02-14T00:33:56.254Z,992.76
2018-02-14T00:34:56.276Z,992.85
2018-02-14T00:35:56.302Z,992.81
2018-02-14T00:36:56.321Z,992.80
2018-02-14T00:37:56.343Z,992.76
2018-02-14T00:38:56.366Z,992.82
2018-02-14T00:39:56.387Z,992.81
2018-02-14T00:40:56.409Z,992.87
2018-02-14T00:41:56.434Z,992.88
2018-02-14T00:42:56.455Z,992.88
2018-02-14T00:43:56.475Z,992.85
2018-02-14T00:44:56.499Z,992.89
2018-02-14T00:45:56.536Z,992.89
2018-02-14T00:46:56.542Z,992.86
2018-02-14T00:47:56.567Z,992.89
2018-02-14T00:48:56.587Z,992.87
2018-02-14T00:49:56.610Z,992.87
2018-02-14T00:50:56.633Z,992.91
2018-02-14T00:51:56.653Z,992.90
2018-02-14T00:52:56.676Z,992.95
2018-02-14T00:53:56.699Z,992.89
2018-02-14T00:54:56.721Z,992.95
2018-02-14T00:55:56.743Z,992.91
2018-02-14T00:56:56.765Z,992.98
2018-02-14T00:57:56.788Z,992.97
2018-02-14T00:58:56.809Z,992.98
2018-02-14T00:59:56.831Z,993.04
2018-02-14T01:00:56.854Z,993.10
2018-02-14T01:01:56.876Z,993.05
2018-02-14T01:02:56.898Z,993.11
2018-02-14T01:03:56.920Z,993.07
2018-02-14T01:04:56.943Z,993.13
2018-02-14T01:05:56.965Z,993.08
2018-02-14T01:06:56.987Z,993.12
2018-02-14T01:07:57.008Z,993.15
2018-02-14T01:08:57.031Z,993.13
2018-02-14T01:09:57.053Z,993.13
2018-02-14T01:10:57.076Z,993.17
2018-02-14T01:11:57.097Z,993.15
2018-02-14T01:12:57.120Z,993.18
2018-02-14T01:13:57.142Z,993.20
2018-02-14T01:14:57.164Z,993.14
2018-02-14T01:15:57.184Z,993.23
2018-02-14T01:16:57.207Z,993.19
2018-02-14T01:17:57.230Z,993.18
2018-02-14T01:18:57.253Z,993.20
2018-02-14T01:19:57.277Z,993.21
2018-02-14T01:20:57.296Z,993.25
2018-02-14T01:21:57.318Z,993.24
2018-02-14T01:22:57.340Z,993.24
2018-02-14T01:23:57.363Z,993.27
2018-02-14T01:24:57.384Z,993.26
2018-02-14T01:25:57.407Z,993.28
2018-02-14T01:26:57.429Z,993.26
2018-02-14T01:27:57.450Z,993.22
2018-02-14T01:28:57.473Z,993.29
2018-02-14T01:29:57.494Z,993.27
2018-02-14T01:30:57.518Z,993.26
2018-02-14T01:31:57.539Z,993.24
2018-02-14T01:32:57.561Z,993.27
2018-02-14T01:33:57.583Z,993.33
2018-02-14T01:34:57.606Z,993.28
2018-02-14T01:35:57.627Z,993.29
2018-02-14T01:36:57.650Z,993.35
2018-02-14T01:37:57.672Z,993.29
2018-02-14T01:38:57.694Z,993.25
2018-02-14T01:39:57.715Z,993.33
2018-02-14T01:40:57.737Z,993.31
2018-02-14T01:41:57.760Z,993.33
2018-02-14T01:42:57.782Z,993.34
2018-02-14T01:43:57.805Z,993.37
2018-02-14T01:44:57.826Z,993.36
2018-02-14T01:45:57.848Z,993.36
2018-02-14T01:46:57.870Z,993.37
2018-02-14T01:47:57.892Z,993.39
2018-02-14T01:48:57.915Z,993.33
2018-02-14T01:49:57.935Z,993.34
2018-02-14T01:50:57.959Z,993.32
2018-02-14T01:51:57.980Z,993.35
2018-02-14T01:52:58.005Z,993.36
2018-02-14T01:53:58.025Z,993.34
2018-02-14T01:54:58.047Z,993.36
2018-02-14T01:55:58.069Z,993.39
2018-02-14T01:56:58.090Z,993.36
2018-02-14T01:57:58.113Z,993.38
2018-02-14T01:58:58.135Z,993.36
2018-02-14T01:59:58.156Z,993.36
2018-02-14T02:00:58.177Z,993.34
2018-02-14T02:01:58.201Z,993.34
2018-02-14T02:02:58.223Z,993.36
2018-02-14T02:03:58.243Z,993.30
2018-02-14T02:04:58.268Z,993.31
2018-02-14T02:05:58.289Z,993.40
2018-02-14T02:06:58.311Z,993.43
2018-02-14T02:09:42.044Z,993.39
2018-02-14T02:10:42.063Z,993.45
2018-02-14T02:11:42.085Z,993.38
2018-02-14T02:12:42.106Z,993.46
2018-02-14T02:13:42.128Z,993.35
2018-02-14T02:14:42.153Z,993.45
2018-02-14T02:15:42.172Z,993.45
2018-02-14T02:16:42.195Z,993.47
2018-02-14T02:17:42.216Z,993.42
2018-02-14T02:18:42.238Z,993.46
2018-02-14T02:19:42.259Z,993.45
2018-02-14T02:20:42.289Z,993.50
2018-02-14T02:21:42.311Z,993.47
2018-02-14T02:22:42.333Z,993.53
2018-02-14T02:23:42.354Z,993.52
2018-02-14T02:24:42.376Z,993.52
2018-02-14T02:25:42.397Z,993.46
2018-02-14T02:26:42.420Z,993.52
2018-02-14T02:27:42.442Z,993.47
2018-02-14T02:28:42.464Z,993.54
2018-02-14T02:29:42.486Z,993.54
2018-02-14T02:30:42.508Z,993.53
2018-02-14T02:31:42.530Z,993.53
2018-02-14T02:32:42.551Z,993.50
2018-02-14T02:33:42.574Z,993.57
2018-02-14T02:34:42.596Z,993.60
2018-02-14T02:35:42.617Z,993.62
2018-02-14T02:36:42.638Z,993.61
2018-02-14T02:37:42.661Z,993.63
2018-02-14T02:38:42.682Z,993.66
2018-02-14T02:39:42.704Z,993.68
2018-02-14T02:40:42.727Z,993.70
2018-02-14T02:41:42.748Z,993.63
2018-02-14T02:42:42.771Z,993.67
2018-02-14T02:43:42.794Z,993.70
2018-02-14T02:44:42.813Z,993.73
2018-02-14T02:45:42.836Z,993.67
2018-02-14T02:46:42.857Z,993.70
2018-02-14T02:47:42.880Z,993.65
2018-02-14T02:48:42.900Z,993.73
2018-02-14T02:49:42.924Z,993.73
2018-02-14T02:50:42.948Z,993.75
2018-02-14T02:51:42.967Z,993.76
2018-02-14T02:52:42.988Z,993.72
2018-02-14T02:53:43.011Z,993.72
2018-02-14T02:54:43.032Z,993.76
2018-02-14T02:55:43.055Z,993.73
2018-02-14T02:56:43.076Z,993.77
2018-02-14T02:57:43.098Z,993.77
2018-02-14T02:58:43.120Z,993.80
2018-02-14T02:59:43.145Z,993.82
2018-02-14T03:00:43.163Z,993.81
2018-02-14T03:01:43.184Z,993.84
2018-02-14T03:02:43.210Z,993.82
2018-02-14T03:03:43.229Z,993.85
2018-02-14T03:04:43.249Z,993.81
2018-02-14T03:05:43.272Z,993.84
2018-02-14T03:06:43.294Z,993.82
2018-02-14T03:07:43.316Z,993.81
2018-02-14T03:08:43.337Z,993.88
2018-02-14T03:09:43.360Z,993.88
2018-02-14T03:10:43.382Z,993.83
2018-02-14T03:11:43.403Z,993.84
2018-02-14T03:12:43.424Z,993.88
2018-02-14T03:13:46.902Z,993.95
2018-02-14T03:14:43.467Z,993.94
2018-02-14T03:15:43.490Z,993.95
2018-02-14T03:16:43.513Z,993.96
2018-02-14T03:17:43.534Z,993.98
2018-02-14T03:18:43.555Z,993.97
2018-02-14T03:19:43.576Z,994.02
2018-02-14T03:20:43.598Z,993.99
2018-02-14T03:21:43.623Z,994.00
2018-02-14T03:22:43.641Z,994.00
2018-02-14T03:23:43.666Z,993.99
2018-02-14T03:24:43.684Z,993.95
2018-02-14T03:25:43.707Z,993.95
2018-02-14T03:26:43.728Z,994.00
2018-02-14T03:27:43.750Z,993.99
2018-02-14T03:28:43.772Z,994.02
2018-02-14T03:29:43.794Z,994.03
2018-02-14T03:30:43.818Z,994.05
2018-02-14T03:31:43.838Z,994.02
2018-02-14T03:32:43.858Z,994.00
2018-02-14T03:33:43.880Z,994.01
2018-02-14T03:34:43.903Z,994.05
2018-02-14T03:35:43.925Z,994.08
2018-02-14T03:36:43.946Z,994.00
2018-02-14T03:37:43.967Z,994.03
2018-02-14T03:38:43.990Z,994.02
2018-02-14T03:39:44.012Z,994.04
2018-02-14T03:40:44.032Z,994.03
2018-02-14T03:41:44.054Z,994.03
2018-02-14T03:42:44.077Z,994.09
2018-02-14T03:43:44.097Z,994.10
2018-02-14T03:44:44.118Z,994.07
2018-02-14T03:45:44.142Z,994.14
2018-02-14T03:46:44.163Z,994.13
2018-02-14T03:47:44.186Z,994.11
2018-02-14T03:48:44.205Z,994.16
2018-02-14T03:49:44.227Z,994.18
2018-02-14T03:50:44.249Z,994.16
2018-02-14T03:51:44.271Z,994.19
2018-02-14T03:52:44.292Z,994.21
2018-02-14T03:53:44.313Z,994.24
2018-02-14T03:54:44.336Z,994.26
2018-02-14T03:55:44.357Z,994.28
2018-02-14T03:56:44.378Z,994.26
2018-02-14T03:57:44.400Z,994.31
2018-02-14T03:58:44.422Z,994.31
2018-02-14T03:59:44.445Z,994.24
2018-02-14T04:00:44.464Z,994.35
2018-02-14T04:01:44.485Z,994.33
2018-02-14T04:02:44.509Z,994.37
2018-02-14T04:03:44.531Z,994.42
2018-02-14T04:04:44.551Z,994.44
2018-02-14T04:05:44.573Z,994.43
2018-02-14T04:06:44.594Z,994.47
2018-02-14T04:07:44.616Z,994.46
2018-02-14T04:08:44.638Z,994.50
2018-02-14T04:09:44.659Z,994.45
2018-02-14T04:10:44.707Z,994.53
2018-02-14T04:11:44.703Z,994.50
2018-02-14T04:12:44.723Z,994.46
2018-02-14T04:13:44.744Z,994.51
2018-02-14T04:14:44.766Z,994.52
2018-02-14T04:15:44.789Z,994.55
2018-02-14T04:16:44.810Z,994.55
2018-02-14T04:17:44.831Z,994.56
2018-02-14T04:18:44.853Z,994.61
2018-02-14T04:19:44.876Z,994.62
2018-02-14T04:20:44.896Z,994.60
2018-02-14T04:21:44.917Z,994.65
2018-02-14T04:22:44.940Z,994.65
2018-02-14T04:23:44.962Z,994.67
2018-02-14T04:24:45.033Z,994.64
2018-02-14T04:25:45.006Z,994.69
2018-02-14T04:26:45.028Z,994.67
2018-02-14T04:27:45.047Z,994.67
2018-02-14T04:28:45.069Z,994.70
2018-02-14T04:29:45.091Z,994.77
2018-02-14T04:30:45.111Z,994.78
2018-02-14T04:31:45.133Z,994.82
2018-02-14T04:32:45.154Z,994.79
2018-02-14T04:33:45.176Z,994.82
2018-02-14T04:34:45.197Z,994.82
2018-02-14T04:35:45.219Z,994.85
2018-02-14T04:36:45.240Z,994.81
2018-02-14T04:37:45.262Z,994.84
2018-02-14T04:38:45.286Z,994.85
2018-02-14T04:39:45.306Z,994.91
2018-02-14T04:40:45.329Z,994.86
2018-02-14T04:41:45.349Z,994.96
2018-02-14T04:42:45.370Z,994.98
2018-02-14T04:43:45.392Z,994.97
2018-02-14T04:44:45.415Z,994.99
2018-02-14T04:45:45.434Z,994.94
2018-02-14T04:46:45.457Z,994.99
2018-02-14T04:47:45.478Z,995.00
2018-02-14T04:48:45.498Z,994.96
2018-02-14T04:49:45.559Z,994.99
2018-02-14T04:50:45.542Z,995.06
2018-02-14T04:51:45.563Z,995.01
2018-02-14T04:52:45.585Z,995.03
2018-02-14T04:53:45.606Z,995.01
2018-02-14T04:54:45.627Z,995.03
2018-02-14T04:55:45.649Z,995.04
2018-02-14T04:56:45.670Z,995.04
2018-02-14T04:57:45.691Z,995.10
2018-02-14T04:58:45.713Z,995.06
2018-02-14T04:59:45.734Z,995.10
2018-02-14T05:00:45.762Z,995.13
2018-02-14T05:01:45.776Z,995.09
2018-02-14T05:02:45.798Z,995.10
2018-02-14T05:03:45.819Z,995.16
2018-02-14T05:04:45.840Z,995.09
2018-02-14T05:05:45.862Z,995.14
2018-02-14T05:06:45.884Z,995.16
2018-02-14T05:07:45.904Z,995.18
2018-02-14T05:08:45.926Z,995.21
2018-02-14T05:09:45.948Z,995.27
2018-02-14T05:10:45.967Z,995.27
2018-02-14T05:11:45.991Z,995.24
2018-02-14T05:12:46.011Z,995.32
2018-02-14T05:13:46.033Z,995.31
2018-02-14T05:14:46.056Z,995.33
2018-02-14T05:15:46.075Z,995.37
2018-02-14T05:16:46.096Z,995.41
2018-02-14T05:17:46.118Z,995.46
2018-02-14T05:18:46.140Z,995.44
2018-02-14T05:19:46.161Z,995.45
2018-02-14T05:20:46.182Z,995.46
2018-02-14T05:21:46.203Z,995.46
2018-02-14T05:22:46.224Z,995.50
2018-02-14T05:23:46.247Z,995.49
2018-02-14T05:24:46.270Z,995.52
2018-02-14T05:25:46.289Z,995.48
2018-02-14T05:26:46.312Z,995.51
2018-02-14T05:27:46.331Z,995.48
2018-02-14T05:28:46.354Z,995.58
2018-02-14T05:29:46.374Z,995.54
2018-02-14T05:30:46.397Z,995.53
2018-02-14T05:31:46.419Z,995.62
2018-02-14T05:32:46.442Z,995.64
2018-02-14T05:33:46.458Z,995.71
2018-02-14T05:34:46.482Z,995.74
2018-02-14T05:35:46.503Z,995.75
2018-02-14T05:36:46.524Z,995.79
2018-02-14T05:37:46.545Z,995.81
2018-02-14T05:38:46.567Z,995.82
2018-02-14T05:39:46.588Z,995.86
2018-02-14T05:40:46.609Z,995.82
2018-02-14T05:41:46.633Z,995.84
2018-02-14T05:42:46.651Z,995.84
2018-02-14T05:43:46.673Z,995.84
2018-02-14T05:44:46.694Z,995.83
2018-02-14T05:45:46.716Z,995.86
2018-02-14T05:46:46.738Z,995.94
2018-02-14T05:47:46.760Z,995.93
2018-02-14T05:48:46.780Z,995.89
2018-02-14T05:49:46.801Z,995.92
2018-02-14T05:50:46.824Z,995.95
2018-02-14T05:51:46.843Z,995.90
2018-02-14T05:52:46.865Z,995.94
2018-02-14T05:53:46.888Z,995.94
2018-02-14T05:54:46.908Z,995.95
2018-02-14T05:55:46.930Z,995.99
2018-02-14T05:56:46.951Z,996.05
2018-02-14T05:57:46.972Z,996.06
2018-02-14T05:58:46.993Z,996.07
2018-02-14T05:59:47.015Z,996.02
2018-02-14T06:00:47.034Z,996.04
2018-02-14T06:01:47.057Z,996.02
2018-02-14T06:02:47.079Z,995.99
2018-02-14T06:03:47.102Z,996.01
2018-02-14T06:04:47.119Z,996.05
2018-02-14T06:05:47.142Z,996.03
2018-02-14T06:06:47.163Z,996.08
2018-02-14T06:07:47.185Z,996.11
2018-02-14T06:08:47.204Z,996.11
2018-02-14T06:09:47.227Z,996.11
2018-02-14T06:10:47.247Z,996.08
2018-02-14T06:11:47.277Z,996.10
2018-02-14T06:12:47.289Z,996.10
2018-02-14T06:13:47.312Z,996.09
2018-02-14T06:14:47.334Z,996.11
2018-02-14T06:15:47.354Z,996.13
2018-02-14T06:16:47.375Z,996.17
2018-02-14T06:17:47.402Z,996.23
2018-02-14T06:18:47.417Z,996.27
2018-02-14T06:19:47.439Z,996.27
2018-02-14T06:20:47.459Z,996.29
2018-02-14T06:21:47.480Z,996.34
2018-02-14T06:22:47.503Z,996.32
2018-02-14T06:23:47.524Z,996.35
2018-02-14T06:24:47.544Z,996.30
2018-02-14T06:25:47.566Z,996.35
2018-02-14T06:26:47.589Z,996.30
2018-02-14T06:27:47.610Z,996.30
2018-02-14T06:28:47.630Z,996.32
2018-02-14T06:29:47.650Z,996.34
2018-02-14T06:30:47.672Z,996.37
2018-02-14T06:31:47.694Z,996.37
2018-02-14T06:32:47.716Z,996.43
2018-02-14T06:33:47.736Z,996.44
2018-02-14T06:34:47.757Z,996.46
2018-02-14T06:35:47.778Z,996.49
2018-02-14T06:36:47.800Z,996.48
2018-02-14T06:37:47.821Z,996.52
2018-02-14T06:38:47.842Z,996.58
2018-02-14T06:39:47.863Z,996.54
2018-02-14T06:40:47.885Z,996.54
2018-02-14T06:41:47.905Z,996.55
2018-02-14T06:42:47.928Z,996.54
2018-02-14T06:43:47.950Z,996.59
2018-02-14T06:44:47.970Z,996.58
2018-02-14T06:45:47.990Z,996.59
2018-02-14T06:46:48.013Z,996.66
2018-02-14T06:47:48.037Z,996.59
2018-02-14T06:48:48.055Z,996.60
2018-02-14T06:49:48.076Z,996.67
2018-02-14T06:50:48.100Z,996.70
2018-02-14T06:51:48.119Z,996.68
2018-02-14T06:52:48.140Z,996.67
2018-02-14T06:53:48.160Z,996.67
2018-02-14T06:54:48.184Z,996.68
2018-02-14T06:55:48.206Z,996.72
2018-02-14T06:56:48.224Z,996.68
2018-02-14T06:57:48.253Z,996.68
2018-02-14T06:58:48.269Z,996.61
2018-02-14T06:59:48.290Z,996.65
2018-02-14T07:00:48.314Z,996.67
2018-02-14T07:01:48.334Z,996.70
2018-02-14T07:02:48.353Z,996.67
2018-02-14T07:03:48.375Z,996.67
2018-02-14T07:04:48.397Z,996.70
2018-02-14T07:05:48.418Z,996.69
2018-02-14T07:06:48.442Z,996.70
2018-02-14T07:07:48.464Z,996.70
2018-02-14T07:08:48.484Z,996.72
2018-02-14T07:09:48.505Z,996.68
2018-02-14T07:10:48.562Z,996.70
2018-02-14T07:11:48.548Z,996.73
2018-02-14T07:12:48.569Z,996.72
2018-02-14T07:13:48.592Z,996.80
2018-02-14T07:14:48.616Z,996.81
2018-02-14T07:15:48.636Z,996.78
2018-02-14T07:16:48.656Z,996.81
2018-02-14T07:17:48.681Z,996.86
2018-02-14T07:18:48.702Z,996.84
2018-02-14T07:19:48.750Z,996.82
2018-02-14T07:20:48.746Z,996.81
2018-02-14T07:21:48.763Z,996.88
2018-02-14T07:22:48.788Z,996.89
2018-02-14T07:23:48.810Z,996.89
2018-02-14T07:24:48.832Z,996.88
2018-02-14T07:25:48.856Z,996.95
2018-02-14T07:26:48.877Z,996.95
2018-02-14T07:27:48.899Z,996.93
2018-02-14T07:28:48.920Z,996.99
2018-02-14T07:29:48.943Z,997.01
2018-02-14T07:30:48.965Z,997.03
2018-02-14T07:31:48.987Z,997.06
2018-02-14T07:32:49.009Z,997.04
2018-02-14T07:33:49.031Z,997.05
2018-02-14T07:34:49.055Z,997.06
2018-02-14T07:35:49.076Z,997.07
2018-02-14T07:36:49.097Z,997.10
2018-02-14T07:37:49.127Z,997.14
2018-02-14T07:38:49.146Z,997.15
2018-02-14T07:39:49.168Z,997.16
2018-02-14T07:40:49.188Z,997.14
2018-02-14T07:41:49.212Z,997.16
2018-02-14T07:42:49.236Z,997.18
2018-02-14T07:43:49.259Z,997.20
2018-02-14T07:44:49.281Z,997.28
2018-02-14T07:45:49.304Z,997.27
2018-02-14T07:46:49.328Z,997.21
2018-02-14T07:47:49.351Z,997.25
2018-02-14T07:48:49.373Z,997.30
2018-02-14T07:49:49.397Z,997.35
2018-02-14T07:50:49.421Z,997.30
2018-02-14T07:51:49.445Z,997.28
2018-02-14T07:52:49.468Z,997.37
2018-02-14T07:53:49.491Z,997.35
2018-02-14T07:54:49.514Z,997.31
2018-02-14T07:55:49.539Z,997.39
2018-02-14T07:56:49.564Z,997.35
2018-02-14T07:57:49.589Z,997.40
2018-02-14T07:58:49.612Z,997.39
2018-02-14T07:59:49.634Z,997.37
2018-02-14T08:00:49.659Z,997.36
2018-02-14T08:01:49.684Z,997.42
2018-02-14T08:02:49.709Z,997.41
2018-02-14T08:03:49.734Z,997.46
2018-02-14T08:04:49.758Z,997.46
2018-02-14T08:05:49.786Z,997.47
2018-02-14T08:06:49.807Z,997.52
2018-02-14T08:07:49.835Z,997.57
2018-02-14T08:08:49.857Z,997.54
2018-02-14T08:09:49.884Z,997.55
2018-02-14T08:10:49.909Z,997.55
2018-02-14T08:11:49.976Z,997.51
2018-02-14T08:12:49.963Z,997.52
2018-02-14T08:13:49.986Z,997.54
2018-02-14T08:14:50.011Z,997.50
2018-02-14T08:15:50.038Z,997.53
2018-02-14T08:16:50.063Z,997.54
2018-02-14T08:17:50.090Z,997.59
2018-02-14T08:18:50.116Z,997.57
2018-02-14T08:19:50.142Z,997.59
2018-02-14T08:20:50.173Z,997.57
2018-02-14T08:21:50.196Z,997.53
2018-02-14T08:22:50.269Z,997.57
2018-02-14T08:23:50.250Z,997.54
2018-02-14T08:24:50.286Z,997.59
2018-02-14T08:25:50.304Z,997.61
2018-02-14T08:26:50.332Z,997.63
2018-02-14T08:27:50.359Z,997.62
2018-02-14T08:28:50.386Z,997.65
2018-02-14T08:29:50.413Z,997.62
2018-02-14T08:30:50.442Z,997.62
2018-02-14T08:31:50.468Z,997.60
2018-02-14T08:32:50.497Z,997.59
2018-02-14T08:33:50.525Z,997.61
2018-02-14T08:34:50.555Z,997.59
2018-02-14T08:35:50.582Z,997.62
2018-02-14T08:36:50.610Z,997.63
2018-02-14T08:37:50.637Z,997.70
2018-02-14T08:38:50.666Z,997.75
2018-02-14T08:39:50.697Z,997.75
2018-02-14T08:40:50.724Z,997.75
2018-02-14T08:41:50.753Z,997.77
2018-02-14T08:42:50.783Z,997.77
2018-02-14T08:43:50.815Z,997.79
2018-02-14T08:44:50.842Z,997.80
2018-02-14T08:45:50.873Z,997.82
2018-02-14T08:46:50.902Z,997.80
2018-02-14T08:47:50.931Z,997.81
2018-02-14T08:48:50.962Z,997.81
2018-02-14T08:49:50.992Z,997.82
2018-02-14T08:50:51.022Z,997.83
2018-02-14T08:51:51.053Z,997.87
2018-02-14T08:52:51.083Z,997.87
2018-02-14T08:53:51.113Z,997.86
2018-02-14T08:54:51.146Z,997.83
2018-02-14T08:55:51.177Z,997.88
2018-02-14T08:56:51.207Z,997.86
2018-02-14T08:57:51.238Z,997.86
2018-02-14T08:58:51.269Z,997.87
2018-02-14T08:59:51.302Z,997.87
2018-02-14T09:00:51.331Z,997.86
2018-02-14T09:01:51.365Z,997.90
2018-02-14T09:02:51.397Z,997.83
2018-02-14T09:03:51.432Z,997.87
2018-02-14T09:04:51.459Z,997.92
2018-02-14T09:05:51.495Z,997.94
2018-02-14T09:06:51.527Z,997.95
2018-02-14T09:07:51.559Z,997.98
2018-02-14T09:08:51.592Z,997.98
2018-02-14T09:09:51.624Z,998.03
2018-02-14T09:10:51.743Z,998.03
2018-02-14T09:11:51.692Z,998.04
2018-02-14T09:12:51.724Z,998.03
2018-02-14T09:13:51.759Z,998.11
2018-02-14T09:14:51.791Z,998.14
2018-02-14T09:15:51.826Z,998.11
2018-02-14T09:16:51.859Z,998.13
2018-02-14T09:17:51.892Z,998.14
2018-02-14T09:18:51.929Z,998.17
2018-02-14T09:19:51.981Z,998.17
2018-02-14T09:20:51.995Z,998.18
2018-02-14T09:21:52.035Z,998.20
2018-02-14T09:22:52.067Z,998.20
2018-02-14T09:23:52.102Z,998.18
2018-02-14T09:24:52.136Z,998.21
2018-02-14T09:25:52.173Z,998.15
2018-02-14T09:26:52.209Z,998.21
2018-02-14T09:27:52.244Z,998.27
2018-02-14T09:28:52.280Z,998.27
2018-02-14T09:29:52.319Z,998.25
2018-02-14T09:30:52.353Z,998.27
2018-02-14T09:31:52.390Z,998.27
2018-02-14T09:32:52.424Z,998.26
2018-02-14T09:33:52.462Z,998.29
2018-02-14T09:34:52.500Z,998.24
2018-02-14T09:35:52.536Z,998.28
2018-02-14T09:36:52.574Z,998.24
2018-02-14T09:37:52.612Z,998.27
2018-02-14T09:38:52.649Z,998.31
2018-02-14T09:39:52.689Z,998.27
2018-02-14T09:40:52.725Z,998.28
2018-02-14T09:41:52.762Z,998.29
2018-02-14T09:42:52.801Z,998.27
2018-02-14T09:43:52.840Z,998.29
2018-02-14T09:44:52.878Z,998.29
2018-02-14T09:45:52.916Z,998.36
2018-02-14T09:46:52.956Z,998.35
2018-02-14T09:47:52.994Z,998.37
2018-02-14T09:48:53.032Z,998.37
2018-02-14T09:49:53.073Z,998.42
2018-02-14T09:50:53.111Z,998.35
2018-02-14T09:51:53.150Z,998.41
2018-02-14T09:52:53.190Z,998.40
2018-02-14T09:53:53.231Z,998.40
2018-02-14T09:54:53.272Z,998.40
2018-02-14T09:55:53.311Z,998.45
2018-02-14T09:56:53.351Z,998.45
2018-02-14T09:57:53.390Z,998.47
2018-02-14T09:58:53.432Z,998.55
2018-02-14T09:59:53.472Z,998.52
2018-02-14T10:00:53.512Z,998.55
2018-02-14T10:01:53.552Z,998.58
2018-02-14T10:02:53.593Z,998.63
2018-02-14T10:03:53.633Z,998.60
2018-02-14T10:04:53.673Z,998.64
2018-02-14T10:05:53.716Z,998.65
2018-02-14T10:06:53.756Z,998.64
2018-02-14T10:07:53.798Z,998.61
2018-02-14T10:08:53.839Z,998.65
2018-02-14T10:09:53.880Z,998.64
2018-02-14T10:10:53.921Z,998.67
2018-02-14T10:11:53.987Z,998.66
2018-02-14T10:12:54.004Z,998.70
2018-02-14T10:13:54.047Z,998.66
2018-02-14T10:14:54.090Z,998.66
2018-02-14T10:15:54.134Z,998.71
2018-02-14T10:16:54.177Z,998.69
2018-02-14T10:17:54.216Z,998.66
2018-02-14T10:18:54.259Z,998.70
2018-02-14T10:19:54.300Z,998.71
2018-02-14T10:20:54.343Z,998.68
2018-02-14T10:21:54.386Z,998.71
2018-02-14T10:22:54.429Z,998.73
2018-02-14T10:23:54.477Z,998.77
2018-02-14T10:24:54.520Z,998.73
2018-02-14T10:25:54.558Z,998.72
2018-02-14T10:26:54.602Z,998.74
2018-02-14T10:27:54.645Z,998.76
2018-02-14T10:28:54.688Z,998.81
2018-02-14T10:29:54.732Z,998.84
2018-02-14T10:30:54.776Z,998.84
2018-02-14T10:31:54.820Z,998.85
2018-02-14T10:32:54.864Z,998.91
2018-02-14T10:33:54.909Z,998.95
2018-02-14T10:34:54.952Z,998.96
2018-02-14T10:35:54.996Z,998.98
2018-02-14T10:36:55.040Z,998.99
2018-02-14T10:37:55.084Z,999.01
2018-02-14T10:38:55.129Z,999.01
2018-02-14T10:39:55.174Z,999.01
2018-02-14T10:40:55.218Z,999.00
2018-02-14T10:41:55.265Z,998.99
2018-02-14T10:42:55.308Z,999.01
2018-02-14T10:43:55.353Z,998.96
2018-02-14T10:44:55.398Z,998.97
2018-02-14T10:45:55.445Z,999.02
2018-02-14T10:46:55.489Z,999.02
2018-02-14T10:47:55.535Z,999.10
2018-02-14T10:48:55.581Z,999.06
2018-02-14T10:49:55.625Z,999.13
2018-02-14T10:50:55.670Z,999.15
2018-02-14T10:51:55.718Z,999.13
2018-02-14T10:52:55.760Z,999.14
2018-02-14T10:53:55.806Z,999.16
2018-02-14T10:54:55.852Z,999.19
2018-02-14T10:55:55.896Z,999.19
2018-02-14T10:56:55.940Z,999.22
2018-02-14T10:57:55.989Z,999.24
2018-02-14T10:58:56.031Z,999.23
2018-02-14T10:59:56.077Z,999.24
2018-02-14T11:00:56.121Z,999.28
2018-02-14T11:01:56.167Z,999.27
2018-02-14T11:02:56.213Z,999.29
2018-02-14T11:03:56.259Z,999.29
2018-02-14T11:04:56.308Z,999.27
2018-02-14T11:05:56.349Z,999.29
2018-02-14T11:06:56.400Z,999.27
2018-02-14T11:07:56.441Z,999.29
2018-02-14T11:08:56.485Z,999.23
2018-02-14T11:09:56.531Z,999.20
2018-02-14T11:10:56.577Z,999.20
2018-02-14T11:11:56.623Z,999.18
2018-02-14T11:12:56.667Z,999.21
2018-02-14T11:13:56.716Z,999.18
2018-02-14T11:14:56.760Z,999.24
2018-02-14T11:15:56.806Z,999.27
2018-02-14T11:16:56.850Z,999.28
2018-02-14T11:17:56.896Z,999.27
2018-02-14T11:18:56.942Z,999.23
2018-02-14T11:19:56.988Z,999.23
2018-02-14T11:20:57.032Z,999.25
2018-02-14T11:21:57.078Z,999.29
2018-02-14T11:22:57.123Z,999.32
2018-02-14T11:23:57.170Z,999.29
2018-02-14T11:24:57.215Z,999.31
2018-02-14T11:25:57.261Z,999.31
2018-02-14T11:26:57.310Z,999.29
2018-02-14T11:27:57.355Z,999.28
2018-02-14T11:28:57.401Z,999.24
2018-02-14T11:29:57.447Z,999.24
2018-02-14T11:30:57.493Z,999.24
2018-02-14T11:31:57.539Z,999.26
2018-02-14T11:32:57.586Z,999.22
2018-02-14T11:33:57.634Z,999.24
2018-02-14T11:34:57.680Z,999.18
2018-02-14T11:35:57.729Z,999.23
2018-02-14T11:36:57.773Z,999.23
2018-02-14T11:37:57.819Z,999.17
2018-02-14T11:38:57.868Z,999.17
2018-02-14T11:39:57.914Z,999.20
2018-02-14T11:40:57.960Z,999.23
2018-02-14T11:41:58.008Z,999.25
2018-02-14T11:42:58.056Z,999.30
2018-02-14T11:43:58.102Z,999.29
2018-02-14T11:44:58.149Z,999.32
2018-02-14T11:45:58.196Z,999.42
2018-02-14T11:46:58.245Z,999.43
2018-02-14T11:47:58.291Z,999.38
2018-02-14T11:48:58.340Z,999.32
2018-02-14T11:49:58.388Z,999.30
2018-02-14T11:50:58.435Z,999.25
2018-02-14T11:51:58.483Z,999.21
2018-02-14T11:52:58.530Z,999.20
2018-02-14T11:53:58.580Z,999.20
2018-02-14T11:54:58.629Z,999.20
2018-02-14T11:55:58.676Z,999.21
2018-02-14T11:56:58.722Z,999.18
2018-02-14T11:57:58.771Z,999.15
2018-02-14T11:58:58.820Z,999.16
2018-02-14T11:59:58.869Z,999.12
2018-02-14T12:00:58.916Z,999.10
2018-02-14T12:01:58.966Z,999.14
2018-02-14T12:02:59.014Z,999.09
2018-02-14T12:03:59.082Z,999.11
2018-02-14T12:04:59.109Z,999.11
2018-02-14T12:05:59.159Z,999.13
2018-02-14T12:06:59.208Z,999.16
2018-02-14T12:07:59.256Z,999.20
2018-02-14T12:08:59.306Z,999.20
2018-02-14T12:09:59.355Z,999.17
2018-02-14T12:10:59.403Z,999.17
2018-02-14T12:11:59.454Z,999.14
2018-02-14T12:12:59.500Z,999.14
2018-02-14T12:13:59.553Z,999.16
2018-02-14T12:14:59.599Z,999.23
2018-02-14T12:15:59.646Z,999.24
2018-02-14T12:16:59.695Z,999.19
2018-02-14T12:17:59.742Z,999.18
2018-02-14T12:18:59.792Z,999.15
2018-02-14T12:19:59.842Z,999.19
2018-02-14T12:20:59.889Z,999.16
2018-02-14T12:21:59.938Z,999.16
2018-02-14T12:22:59.987Z,999.14
2018-02-14T12:24:00.038Z,999.11
2018-02-14T12:25:00.085Z,999.14
2018-02-14T12:26:00.133Z,999.14
2018-02-14T12:27:00.180Z,999.14
2018-02-14T12:28:00.230Z,999.13
2018-02-14T12:29:00.278Z,999.15
2018-02-14T12:30:00.326Z,999.11
2018-02-14T12:31:00.373Z,999.10